createdAt,value
2022-12-16T00:01:14.167Z,8.95
2022-12-16T00:03:44.245Z,8.77
2022-12-16T00:06:12.633Z,8.23
2022-12-16T00:08:41.163Z,8.40
2022-12-16T00:11:10.193Z,6.90
2022-12-16T00:13:41.322Z,7.55
2022-12-16T00:16:10.758Z,7.30
2022-12-16T00:18:40.391Z,7.33
2022-12-16T00:21:09.062Z,5.90
2022-12-16T00:23:39.392Z,6.10
2022-12-16T00:26:07.772Z,5.50
2022-12-16T00:28:36.490Z,6.17
2022-12-16T00:31:06.441Z,5.43
2022-12-16T00:33:35.270Z,5.03
2022-12-16T00:36:04.076Z,4.70
2022-12-16T00:38:32.329Z,5.10
2022-12-16T00:41:00.808Z,4.80
2022-12-16T00:43:29.300Z,4.38
2022-12-16T00:45:57.722Z,4.80
2022-12-16T00:48:27.374Z,4.57
2022-12-16T00:50:56.100Z,3.97
2022-12-16T00:53:25.090Z,4.38
2022-12-16T00:55:53.663Z,4.60
2022-12-16T00:58:22.015Z,4.60
2022-12-16T01:00:50.346Z,4.60
2022-12-16T01:03:22.065Z,4.05
2022-12-16T01:05:51.941Z,4.10
2022-12-16T01:08:20.978Z,4.45
2022-12-16T01:10:52.403Z,3.75
2022-12-16T01:13:21.371Z,3.30
2022-12-16T01:15:49.875Z,3.05
2022-12-16T01:18:19.238Z,3.55
2022-12-16T01:20:47.544Z,3.00
2022-12-16T01:23:17.240Z,2.95
2022-12-16T01:25:45.616Z,2.90
2022-12-16T01:28:13.836Z,3.42
2022-12-16T01:30:42.080Z,3.00
2022-12-16T01:33:11.096Z,2.47
2022-12-16T01:35:55.288Z,2.38
2022-12-16T01:38:25.776Z,3.10
2022-12-16T01:40:55.042Z,2.45
2022-12-16T01:43:25.723Z,2.40
2022-12-16T01:45:54.590Z,2.22
2022-12-16T01:48:27.860Z,2.95
2022-12-16T01:50:58.414Z,2.40
2022-12-16T01:53:28.187Z,2.30
2022-12-16T01:55:57.403Z,2.45
2022-12-16T01:58:27.697Z,2.92
2022-12-16T02:00:56.042Z,2.90
2022-12-16T02:03:24.453Z,2.30
2022-12-16T02:05:53.687Z,2.30
2022-12-16T02:08:22.653Z,2.63
2022-12-16T02:11:09.692Z,2.17
2022-12-16T02:13:47.716Z,2.00
2022-12-16T02:16:19.353Z,1.98
2022-12-16T02:18:54.402Z,2.20
2022-12-16T02:21:33.499Z,1.77
2022-12-16T02:24:19.412Z,1.90
2022-12-16T02:27:05.717Z,1.73
2022-12-16T02:29:41.699Z,2.40
2022-12-16T02:32:15.339Z,2.30
2022-12-16T02:34:46.615Z,2.03
2022-12-16T02:37:18.407Z,1.92
2022-12-16T02:39:50.624Z,2.47
2022-12-16T02:42:23.465Z,2.20
2022-12-16T02:44:55.256Z,2.30
2022-12-16T02:47:25.411Z,2.42
2022-12-16T02:49:55.085Z,2.60
2022-12-16T02:52:24.355Z,2.45
2022-12-16T02:54:54.595Z,2.27
2022-12-16T02:57:37.770Z,2.45
2022-12-16T03:00:08.839Z,2.50
2022-12-16T03:02:42.615Z,2.00
2022-12-16T03:05:13.304Z,2.00
2022-12-16T03:07:42.440Z,2.60
2022-12-16T03:10:12.148Z,2.13
2022-12-16T03:12:42.210Z,1.77
2022-12-16T03:15:11.332Z,2.50
2022-12-16T03:17:41.495Z,2.10
2022-12-16T03:20:12.124Z,2.13
2022-12-16T03:22:43.343Z,2.53
2022-12-16T03:25:11.778Z,2.67
2022-12-16T03:27:43.676Z,2.05
2022-12-16T03:30:15.089Z,2.30
2022-12-16T03:32:48.671Z,2.30
2022-12-16T03:35:19.852Z,2.40
2022-12-16T03:37:49.906Z,2.60
2022-12-16T03:40:18.388Z,2.80
2022-12-16T03:42:46.667Z,2.30
2022-12-16T03:45:18.386Z,2.50
2022-12-16T03:47:51.799Z,2.40
2022-12-16T03:50:21.387Z,2.38
2022-12-16T03:52:49.630Z,1.88
2022-12-16T03:55:17.924Z,1.70
2022-12-16T03:57:46.246Z,2.22
2022-12-16T04:00:15.126Z,2.40
2022-12-16T04:02:43.733Z,1.90
2022-12-16T04:05:13.525Z,2.00
2022-12-16T04:07:41.816Z,1.98
2022-12-16T04:10:10.409Z,2.28
2022-12-16T04:12:56.427Z,1.90
2022-12-16T04:15:42.373Z,1.77
2022-12-16T04:18:29.497Z,2.22
2022-12-16T04:21:16.725Z,1.90
2022-12-16T04:24:05.654Z,2.50
2022-12-16T04:26:54.779Z,2.30
2022-12-16T04:29:23.077Z,2.50
2022-12-16T04:31:51.834Z,2.05
2022-12-16T04:34:29.487Z,1.92
2022-12-16T04:37:17.919Z,2.50
2022-12-16T04:40:04.290Z,1.70
2022-12-16T04:42:50.047Z,1.77
2022-12-16T04:45:36.189Z,1.70
2022-12-16T04:48:22.298Z,1.88
2022-12-16T04:51:08.274Z,1.50
2022-12-16T04:53:55.676Z,1.75
2022-12-16T04:56:41.763Z,2.50
2022-12-16T04:59:27.827Z,1.75
2022-12-16T05:02:14.143Z,1.35
2022-12-16T05:05:00.051Z,1.80
2022-12-16T05:07:46.092Z,1.90
2022-12-16T05:10:33.295Z,1.95
2022-12-16T05:13:19.327Z,2.10
2022-12-16T05:16:05.440Z,2.70
2022-12-16T05:18:51.313Z,1.80
2022-12-16T05:21:37.261Z,1.90
2022-12-16T05:24:31.571Z,1.98
2022-12-16T05:27:18.562Z,2.10
2022-12-16T05:30:06.880Z,1.60
2022-12-16T05:32:52.947Z,1.70
2022-12-16T05:35:41.411Z,2.03
2022-12-16T05:38:27.380Z,1.95
2022-12-16T05:41:15.752Z,1.80
2022-12-16T05:44:02.811Z,2.00
2022-12-16T05:46:48.995Z,1.95
2022-12-16T05:49:34.732Z,1.95
2022-12-16T05:52:20.729Z,2.00
2022-12-16T05:55:06.978Z,2.80
2022-12-16T05:57:53.158Z,2.40
2022-12-16T06:00:40.653Z,2.45
2022-12-16T06:03:26.898Z,2.88
2022-12-16T06:06:12.803Z,2.03
2022-12-16T06:08:58.731Z,2.00
2022-12-16T06:11:44.699Z,2.27
2022-12-16T06:14:30.683Z,2.88
2022-12-16T06:17:18.096Z,2.10
2022-12-16T06:20:04.063Z,2.00
2022-12-16T06:22:50.072Z,2.60
2022-12-16T06:25:36.150Z,2.20
2022-12-16T06:28:22.176Z,2.60
2022-12-16T06:31:08.226Z,2.80
2022-12-16T06:33:55.781Z,2.42
2022-12-16T06:36:42.057Z,3.00
2022-12-16T06:39:28.075Z,3.60
2022-12-16T06:42:14.364Z,3.20
2022-12-16T06:45:00.366Z,3.53
2022-12-16T06:47:46.430Z,3.60
2022-12-16T06:50:32.917Z,3.20
2022-12-16T06:53:18.944Z,3.55
2022-12-16T06:56:04.731Z,2.88
2022-12-16T06:58:50.949Z,3.45
2022-12-16T07:01:37.007Z,3.73
2022-12-16T07:04:22.959Z,3.10
2022-12-16T07:07:10.187Z,3.10
2022-12-16T07:09:55.485Z,3.97
2022-12-16T07:12:41.151Z,3.70
2022-12-16T07:15:27.545Z,4.38
2022-12-16T07:18:13.129Z,5.38
2022-12-16T07:20:58.801Z,4.75
2022-12-16T07:23:45.279Z,4.38
2022-12-16T07:26:30.918Z,4.82
2022-12-16T07:29:18.690Z,5.20
2022-12-16T07:32:04.361Z,4.28
2022-12-16T07:34:50.415Z,3.95
2022-12-16T07:37:36.063Z,5.05
2022-12-16T07:40:23.681Z,4.05
2022-12-16T07:43:09.263Z,4.40
2022-12-16T07:45:54.737Z,4.40
2022-12-16T07:48:40.739Z,4.40
2022-12-16T07:51:26.464Z,4.45
2022-12-16T07:54:12.073Z,4.80
2022-12-16T07:56:58.876Z,5.18
2022-12-16T07:59:44.474Z,5.80
2022-12-16T08:02:30.180Z,5.10
2022-12-16T08:05:15.945Z,5.70
2022-12-16T08:08:01.229Z,5.10
2022-12-16T08:10:46.977Z,5.03
2022-12-16T08:13:34.323Z,4.25
2022-12-16T08:16:19.977Z,4.63
2022-12-16T08:19:10.759Z,4.40
2022-12-16T08:21:56.558Z,4.80
2022-12-16T08:24:42.096Z,5.32
2022-12-16T08:27:27.620Z,5.20
2022-12-16T08:30:14.449Z,5.20
2022-12-16T08:33:05.164Z,5.50
2022-12-16T08:35:59.154Z,6.20
2022-12-16T08:38:44.563Z,6.00
2022-12-16T08:41:30.174Z,6.00
2022-12-16T08:44:11.972Z,5.72
2022-12-16T08:46:58.733Z,5.75
2022-12-16T08:49:43.820Z,5.63
2022-12-16T08:52:29.506Z,5.83
2022-12-16T08:55:15.108Z,6.13
2022-12-16T08:58:00.774Z,5.63
2022-12-16T09:00:46.294Z,5.43
2022-12-16T09:03:33.370Z,6.05
2022-12-16T09:06:18.856Z,5.70
2022-12-16T09:09:04.304Z,5.68
2022-12-16T09:11:49.887Z,6.03
2022-12-16T09:14:35.564Z,5.47
2022-12-16T09:17:20.853Z,6.00
2022-12-16T09:20:07.445Z,6.60
2022-12-16T09:23:07.632Z,6.82
2022-12-16T09:25:53.166Z,6.47
2022-12-16T09:28:41.169Z,6.10
2022-12-16T09:31:26.829Z,6.50
2022-12-16T09:34:12.231Z,5.50
2022-12-16T09:36:58.963Z,5.47
2022-12-16T09:39:44.553Z,6.25
2022-12-16T09:42:38.967Z,5.90
2022-12-16T09:45:35.032Z,5.82
2022-12-16T09:48:25.224Z,6.07
2022-12-16T09:51:14.832Z,5.10
2022-12-16T09:54:03.040Z,4.90
2022-12-16T09:56:51.498Z,5.60
2022-12-16T09:59:44.334Z,5.13
2022-12-16T10:02:31.379Z,5.35
2022-12-16T10:05:16.983Z,5.93
2022-12-16T10:08:06.992Z,4.70
2022-12-16T10:11:02.967Z,4.83
2022-12-16T10:13:59.051Z,4.90
2022-12-16T10:16:52.042Z,3.60
2022-12-16T10:19:52.312Z,5.25
2022-12-16T10:22:44.695Z,4.90
2022-12-16T10:25:36.293Z,4.22
2022-12-16T10:28:31.151Z,5.10
2022-12-16T10:31:16.774Z,4.63
2022-12-16T10:34:04.215Z,4.50
2022-12-16T10:36:50.133Z,4.70
2022-12-16T10:39:45.165Z,4.13
2022-12-16T10:42:38.536Z,4.10
2022-12-16T10:45:35.239Z,5.00
2022-12-16T10:48:20.860Z,4.55
2022-12-16T10:51:06.479Z,4.38
2022-12-16T10:53:53.932Z,4.13
2022-12-16T10:56:55.828Z,4.70
2022-12-16T10:59:54.311Z,4.45
2022-12-16T11:02:43.948Z,4.40
2022-12-16T11:05:49.813Z,4.35
2022-12-16T11:08:47.815Z,4.15
2022-12-16T11:11:40.852Z,4.45
2022-12-16T11:14:59.491Z,5.00
2022-12-16T11:17:51.534Z,4.70
2022-12-16T11:20:39.006Z,4.10
2022-12-16T11:23:43.393Z,5.20
2022-12-16T11:26:36.813Z,4.07
2022-12-16T11:29:30.775Z,4.80
2022-12-16T11:32:21.253Z,5.10
2022-12-16T11:35:12.335Z,5.35
2022-12-16T11:38:01.451Z,5.10
2022-12-16T11:40:48.735Z,4.78
2022-12-16T11:43:37.043Z,5.20
2022-12-16T11:46:27.026Z,4.47
2022-12-16T11:49:21.949Z,5.00
2022-12-16T11:52:35.911Z,4.68
2022-12-16T11:55:48.186Z,5.95
2022-12-16T11:58:39.040Z,4.65
2022-12-16T12:01:31.763Z,5.47
2022-12-16T12:04:17.571Z,5.13
2022-12-16T12:07:20.159Z,5.03
2022-12-16T12:10:12.685Z,4.93
2022-12-16T12:13:04.351Z,6.07
2022-12-16T12:15:56.899Z,5.30
2022-12-16T12:18:51.425Z,5.40
2022-12-16T12:21:42.931Z,6.07
2022-12-16T12:24:42.452Z,5.15
2022-12-16T12:27:37.106Z,5.40
2022-12-16T12:30:25.037Z,5.75
2022-12-16T12:33:26.368Z,5.20
2022-12-16T12:36:20.081Z,4.60
2022-12-16T12:39:18.762Z,4.95
2022-12-16T12:42:26.191Z,4.80
2022-12-16T12:45:24.928Z,5.10
2022-12-16T12:48:19.769Z,4.80
2022-12-16T12:51:13.950Z,4.65
2022-12-16T12:54:07.625Z,4.73
2022-12-16T12:57:06.395Z,4.50
2022-12-16T13:00:04.805Z,4.80
2022-12-16T13:03:01.107Z,4.63
2022-12-16T13:05:50.983Z,4.80
2022-12-16T13:09:29.114Z,4.90
2022-12-16T13:12:43.836Z,4.50
2022-12-16T13:15:39.142Z,4.97
2022-12-16T13:18:52.287Z,5.20
2022-12-16T13:22:05.668Z,4.72
2022-12-16T13:25:07.701Z,5.15
2022-12-16T13:28:13.975Z,5.07
2022-12-16T13:31:25.232Z,4.70
2022-12-16T13:34:11.908Z,5.32
2022-12-16T13:36:58.424Z,4.68
2022-12-16T13:39:45.844Z,4.88
2022-12-16T13:42:51.188Z,4.70
2022-12-16T13:45:48.944Z,4.40
2022-12-16T13:49:00.134Z,4.55
2022-12-16T13:52:18.908Z,5.72
2022-12-16T13:55:10.392Z,4.40
2022-12-16T13:58:00.877Z,5.10
2022-12-16T14:00:47.504Z,5.20
2022-12-16T14:03:38.842Z,4.40
2022-12-16T14:06:34.869Z,4.97
2022-12-16T14:09:22.985Z,5.32
2022-12-16T14:12:15.696Z,4.88
2022-12-16T14:15:06.798Z,4.80
2022-12-16T14:17:57.601Z,5.03
2022-12-16T14:20:48.002Z,5.47
2022-12-16T14:23:56.561Z,4.82
2022-12-16T14:26:42.908Z,4.97
2022-12-16T14:29:39.112Z,5.60
2022-12-16T14:32:38.216Z,4.28
2022-12-16T14:35:31.133Z,4.43
2022-12-16T14:38:17.269Z,4.43
2022-12-16T14:41:10.121Z,4.20
2022-12-16T14:43:55.729Z,4.22
2022-12-16T14:46:46.996Z,4.68
2022-12-16T14:49:40.071Z,4.80
2022-12-16T14:52:42.026Z,4.75
2022-12-16T14:55:34.151Z,5.00
2022-12-16T14:58:28.537Z,4.93
2022-12-16T15:01:17.898Z,4.80
2022-12-16T15:04:05.456Z,4.43
2022-12-16T15:06:58.622Z,5.20
2022-12-16T15:09:48.077Z,5.68
2022-12-16T15:12:36.246Z,5.38
2022-12-16T15:15:27.801Z,5.13
2022-12-16T15:18:16.001Z,6.25
2022-12-16T15:21:07.734Z,5.20
2022-12-16T15:23:53.814Z,5.60
2022-12-16T15:26:41.693Z,5.23
2022-12-16T15:29:51.487Z,5.40
2022-12-16T15:32:55.017Z,5.60
2022-12-16T15:35:46.143Z,5.80
2022-12-16T15:38:37.968Z,4.53
2022-12-16T15:41:24.456Z,5.37
2022-12-16T15:44:10.543Z,5.90
2022-12-16T15:46:56.653Z,5.75
2022-12-16T15:49:51.024Z,5.03
2022-12-16T15:52:51.829Z,6.18
2022-12-16T15:55:46.358Z,6.20
2022-12-16T15:58:34.272Z,6.78
2022-12-16T16:01:20.258Z,7.35
2022-12-16T16:04:10.919Z,7.38
2022-12-16T16:07:03.292Z,7.80
2022-12-16T16:09:50.766Z,7.65
2022-12-16T16:12:38.377Z,7.40
2022-12-16T16:15:26.579Z,7.95
2022-12-16T16:18:15.453Z,7.90
2022-12-16T16:21:01.455Z,7.90
2022-12-16T16:23:48.591Z,7.97
2022-12-16T16:26:37.092Z,8.18
2022-12-16T16:29:23.673Z,8.07
2022-12-16T16:32:09.316Z,8.48
2022-12-16T16:34:54.962Z,8.57
2022-12-16T16:37:40.919Z,9.50
2022-12-16T16:40:37.089Z,9.73
2022-12-16T16:43:22.552Z,9.10
2022-12-16T16:46:12.064Z,8.57
2022-12-16T16:48:57.853Z,8.10
2022-12-16T16:51:43.414Z,8.77
2022-12-16T16:54:29.058Z,9.60
2022-12-16T16:57:15.887Z,8.18
2022-12-16T17:00:01.419Z,8.52
2022-12-16T17:02:46.915Z,9.45
2022-12-16T17:05:44.489Z,8.70
2022-12-16T17:08:29.746Z,8.90
2022-12-16T17:11:26.801Z,8.10
2022-12-16T17:14:13.880Z,8.95
2022-12-16T17:17:02.514Z,8.90
2022-12-16T17:19:47.981Z,9.07
2022-12-16T17:22:33.551Z,9.45
2022-12-16T17:25:19.097Z,9.52
2022-12-16T17:28:04.652Z,9.70
2022-12-16T17:30:51.871Z,10.47
2022-12-16T17:33:38.659Z,11.35
2022-12-16T17:36:30.055Z,11.23
2022-12-16T17:39:17.168Z,11.00
2022-12-16T17:42:03.275Z,11.82
2022-12-16T17:44:48.858Z,11.65
2022-12-16T17:47:35.908Z,12.60
2022-12-16T17:50:24.373Z,12.88
2022-12-16T17:53:13.064Z,14.40
2022-12-16T17:55:58.621Z,15.10
2022-12-16T17:58:51.226Z,14.32
2022-12-16T18:01:37.468Z,14.88
2022-12-16T18:04:25.018Z,14.40
2022-12-16T18:07:10.573Z,15.40
2022-12-16T18:09:56.051Z,15.65
2022-12-16T18:12:42.091Z,15.00
2022-12-16T18:15:28.604Z,15.40
2022-12-16T18:18:14.050Z,16.25
2022-12-16T18:21:00.781Z,16.42
2022-12-16T18:23:48.212Z,16.55
2022-12-16T18:26:33.945Z,17.33
2022-12-16T18:29:19.446Z,16.70
2022-12-16T18:32:17.971Z,17.43
2022-12-16T18:35:03.392Z,17.40
2022-12-16T18:38:01.617Z,16.20
2022-12-16T18:40:47.229Z,16.33
2022-12-16T18:43:33.284Z,17.00
2022-12-16T18:46:18.999Z,17.58
2022-12-16T18:49:04.918Z,17.20
2022-12-16T18:51:58.885Z,17.90
2022-12-16T18:54:45.553Z,17.87
2022-12-16T18:57:33.963Z,18.30
2022-12-16T19:00:24.748Z,18.23
2022-12-16T19:03:10.090Z,18.63
2022-12-16T19:05:51.951Z,20.02
2022-12-16T19:08:37.588Z,20.48
2022-12-16T19:11:24.709Z,21.77
2022-12-16T19:14:10.346Z,20.20
2022-12-16T19:16:56.064Z,20.48
2022-12-16T19:19:41.640Z,19.98
2022-12-16T19:22:27.133Z,20.10
2022-12-16T19:25:12.845Z,19.00
2022-12-16T19:27:59.642Z,19.73
2022-12-16T19:30:45.129Z,20.13
2022-12-16T19:33:30.744Z,20.63
2022-12-16T19:36:30.818Z,22.17
2022-12-16T19:39:16.192Z,20.25
2022-12-16T19:42:01.865Z,22.17
2022-12-16T19:44:48.744Z,23.05
2022-12-16T19:47:34.041Z,21.38
2022-12-16T19:50:19.578Z,22.88
2022-12-16T19:53:01.457Z,23.83
2022-12-16T19:55:46.933Z,23.05
2022-12-16T19:58:38.045Z,23.23
2022-12-16T20:01:27.981Z,25.45
2022-12-16T20:04:13.768Z,24.92
2022-12-16T20:06:55.967Z,25.23
2022-12-16T20:09:44.944Z,26.70
2022-12-16T20:12:31.047Z,27.87
2022-12-16T20:15:16.619Z,29.52
2022-12-16T20:18:03.342Z,27.83
2022-12-16T20:20:48.897Z,28.90
2022-12-16T20:23:34.523Z,29.80
2022-12-16T20:26:20.191Z,30.38
2022-12-16T20:29:05.638Z,30.20
2022-12-16T20:31:51.908Z,30.17
2022-12-16T20:34:38.526Z,28.38
2022-12-16T20:37:24.091Z,28.80
2022-12-16T20:40:09.645Z,27.75
2022-12-16T20:42:56.343Z,28.97
2022-12-16T20:45:41.931Z,29.10
2022-12-16T20:48:31.521Z,28.77
2022-12-16T20:51:26.187Z,27.42
2022-12-16T20:54:12.664Z,28.13
2022-12-16T20:56:58.375Z,26.57
2022-12-16T20:59:43.849Z,26.50
2022-12-16T21:02:33.635Z,26.85
2022-12-16T21:05:20.622Z,25.67
2022-12-16T21:08:07.478Z,26.42
2022-12-16T21:10:56.273Z,25.33
2022-12-16T21:13:41.753Z,24.25
2022-12-16T21:16:27.412Z,23.58
2022-12-16T21:19:13.085Z,25.00
2022-12-16T21:21:58.577Z,24.13
2022-12-16T21:24:45.113Z,25.80
2022-12-16T21:27:30.711Z,24.63
2022-12-16T21:30:16.281Z,23.92
2022-12-16T21:33:01.731Z,23.40
2022-12-16T21:35:47.288Z,24.13
2022-12-16T21:38:32.824Z,21.70
2022-12-16T21:41:19.716Z,22.27
2022-12-16T21:44:05.165Z,20.90
2022-12-16T21:46:51.902Z,20.70
2022-12-16T21:49:37.299Z,20.80
2022-12-16T21:52:22.938Z,20.40
2022-12-16T21:55:08.684Z,20.20
2022-12-16T21:57:56.575Z,18.83
2022-12-16T22:00:42.029Z,19.50
2022-12-16T22:03:27.683Z,19.20
2022-12-16T22:06:16.944Z,18.35
2022-12-16T22:09:02.671Z,18.40
2022-12-16T22:11:48.265Z,18.23
2022-12-16T22:14:35.092Z,19.80
2022-12-16T22:17:20.759Z,20.08
2022-12-16T22:20:06.538Z,20.92
2022-12-16T22:22:52.076Z,22.65
2022-12-16T22:25:37.683Z,24.05
2022-12-16T22:28:25.058Z,24.80
2022-12-16T22:31:16.288Z,26.13
2022-12-16T22:34:01.966Z,26.35
2022-12-16T22:36:48.743Z,26.45
2022-12-16T22:39:34.365Z,25.95
2022-12-16T22:42:20.025Z,28.40
2022-12-16T22:45:05.600Z,29.15
2022-12-16T22:47:52.400Z,29.08
2022-12-16T22:50:40.547Z,28.98
2022-12-16T22:53:26.091Z,30.15
2022-12-16T22:56:12.529Z,29.80
2022-12-16T22:58:58.152Z,31.20
2022-12-16T23:01:44.245Z,30.60
2022-12-16T23:04:31.318Z,30.20
2022-12-16T23:07:16.936Z,29.48
2022-12-16T23:10:02.407Z,30.57
2022-12-16T23:12:48.256Z,29.65
2022-12-16T23:15:33.960Z,27.65
2022-12-16T23:18:19.819Z,29.88
2022-12-16T23:21:07.788Z,28.75
2022-12-16T23:23:53.193Z,26.95
2022-12-16T23:26:39.636Z,28.85
2022-12-16T23:29:25.424Z,29.05
2022-12-16T23:32:10.801Z,28.20
2022-12-16T23:34:59.693Z,27.30
2022-12-16T23:37:46.330Z,27.58
2022-12-16T23:40:31.817Z,27.73
2022-12-16T23:43:17.391Z,26.48
2022-12-16T23:46:03.405Z,28.98
2022-12-16T23:48:48.716Z,27.35
2022-12-16T23:51:34.337Z,27.10
2022-12-16T23:54:20.904Z,27.25
2022-12-16T23:57:06.456Z,27.92
2022-12-16T23:59:48.295Z,26.98
